Time;durP1;ratioP1;P1;durP2;ratioP2;P2;SDS_P1;SDS_P2;PMS_P1;PMS_P2;Temp;Humidity;BMP_temperature;BMP_pressure;BME280_temperature;BME280_humidity;BME280_pressure;Samples;Min_cycle;Max_cycle;Signal;HPM_P1;HPM_P2
2022/08/27 00:01:04;;;;;;;8.00;3.83;;;;;;;14.14;100.00;101960.03;7381570;19;20074;-74
2022/08/27 00:03:40;;;;;;;8.93;4.35;;;;;;;14.13;100.00;101964.41;7381679;19;20275;-75
2022/08/27 00:06:10;;;;;;;12.98;4.40;;;;;;;14.12;100.00;101964.38;7382004;19;20344;-70
2022/08/27 00:08:40;;;;;;;8.88;4.60;;;;;;;14.10;100.00;101968.75;7378020;19;20263;-70
2022/08/27 00:11:12;;;;;;;9.18;4.25;;;;;;;14.06;100.00;101966.06;7378181;19;20471;-71
2022/08/27 00:13:45;;;;;;;8.48;4.03;;;;;;;14.03;100.00;101959.84;7380328;19;20043;-71
2022/08/27 00:16:17;;;;;;;12.15;4.55;;;;;;;14.00;100.00;101962.44;7379099;19;20117;-71
2022/08/27 00:18:50;;;;;;;11.60;4.22;;;;;;;13.98;100.00;101958.88;7382355;19;20037;-71
2022/08/27 00:21:21;;;;;;;8.57;4.00;;;;;;;13.97;100.00;101949.19;7383079;19;20011;-71
2022/08/27 00:23:51;;;;;;;10.45;4.70;;;;;;;13.93;100.00;101945.59;7387020;19;20069;-71
2022/08/27 00:26:20;;;;;;;9.07;4.00;;;;;;;13.91;100.00;101947.31;7385757;19;20102;-71
2022/08/27 00:28:54;;;;;;;7.80;4.47;;;;;;;13.89;100.00;101949.06;7390018;19;20011;-77
2022/08/27 00:31:24;;;;;;;12.90;5.03;;;;;;;13.88;100.00;101943.75;7386598;19;20010;-75
2022/08/27 00:33:57;;;;;;;11.23;5.20;;;;;;;13.87;100.00;101944.63;7387018;19;20026;-73
2022/08/27 00:36:28;;;;;;;8.98;4.38;;;;;;;13.85;100.00;101944.59;7384664;19;20035;-75
2022/08/27 00:38:58;;;;;;;9.07;4.40;;;;;;;13.84;100.00;101947.19;7388346;19;20078;-76
2022/08/27 00:41:34;;;;;;;8.70;4.32;;;;;;;13.82;100.00;101947.16;7386125;19;20007;-74
2022/08/27 00:44:08;;;;;;;9.10;4.40;;;;;;;13.80;100.00;101948.91;7378569;19;20011;-75
2022/08/27 00:46:41;;;;;;;9.45;4.25;;;;;;;13.77;100.00;101951.47;7388176;19;20014;-74
2022/08/27 00:49:16;;;;;;;10.82;5.82;;;;;;;13.74;100.00;101954.94;7386866;19;20015;-75
2022/08/27 00:51:56;;;;;;;7.88;4.03;;;;;;;13.75;100.00;101955.84;7387218;19;20573;-74
2022/08/27 00:54:28;;;;;;;8.90;4.75;;;;;;;13.73;100.00;101950.53;7381341;19;20014;-74
2022/08/27 00:57:01;;;;;;;7.95;4.07;;;;;;;13.72;100.00;101951.38;7381755;19;20011;-74
2022/08/27 00:59:38;;;;;;;9.20;4.40;;;;;;;13.70;100.00;101946.94;7388280;19;20006;-74
2022/08/27 01:04:56;;;;;;;10.35;4.88;;;;;;;13.66;100.00;101948.66;7381774;19;20034;-74
2022/08/27 01:07:28;;;;;;;10.18;4.90;;;;;;;13.63;100.00;101959.13;7384804;19;20035;-75
2022/08/27 01:10:04;;;;;;;8.98;4.63;;;;;;;13.62;100.00;101953.84;7387359;19;20015;-74
2022/08/27 01:12:39;;;;;;;11.18;4.90;;;;;;;13.60;100.00;101950.28;7386552;19;20007;-75
2022/08/27 01:15:18;;;;;;;10.57;4.78;;;;;;;13.59;100.00;101957.31;7384728;19;20011;-73
2022/08/27 01:17:53;;;;;;;8.27;4.90;;;;;;;13.57;100.00;101955.50;7380901;19;20368;-70
2022/08/27 01:20:27;;;;;;;13.88;5.00;;;;;;;13.57;100.00;101952.84;7385756;19;20017;-70
2022/08/27 01:23:06;;;;;;;13.32;4.60;;;;;;;13.57;100.00;101950.22;7386068;19;20010;-70
2022/08/27 01:25:43;;;;;;;13.32;4.97;;;;;;;13.54;100.00;101950.16;7387615;19;20548;-69
2022/08/27 01:31:09;;;;;;;14.43;4.93;;;;;;;13.51;100.00;101951.03;7384817;19;20010;-74
2022/08/27 01:33:40;;;;;;;11.30;4.90;;;;;;;13.49;100.00;101946.59;7385181;19;20019;-74
2022/08/27 01:36:10;;;;;;;11.00;4.65;;;;;;;13.48;100.00;101944.81;7383645;19;21453;-74
2022/08/27 01:38:40;;;;;;;12.50;5.03;;;;;;;13.45;100.00;101944.75;7385222;19;20256;-74
2022/08/27 01:41:13;;;;;;;12.18;5.35;;;;;;;13.45;100.00;101950.03;7384468;19;20446;-75
2022/08/27 01:43:44;;;;;;;9.67;5.47;;;;;;;13.44;100.00;101949.13;7384655;19;20362;-73
2022/08/27 01:46:16;;;;;;;9.30;4.80;;;;;;;13.47;100.00;101945.66;7393399;19;20461;-76
2022/08/27 01:48:45;;;;;;;10.30;4.40;;;;;;;13.45;100.00;101950.91;7392062;19;20331;-75
2022/08/27 01:51:16;;;;;;;12.88;4.80;;;;;;;13.43;100.00;101944.72;7392776;19;20018;-76
2022/08/27 01:53:47;;;;;;;8.90;4.78;;;;;;;13.43;100.00;101950.00;7391406;19;20019;-74
2022/08/27 01:56:20;;;;;;;10.48;4.45;;;;;;;13.40;100.00;101953.47;7392457;19;21904;-74
2022/08/27 01:58:51;;;;;;;10.27;4.88;;;;;;;13.39;100.00;101956.94;7393442;19;20036;-74
2022/08/27 02:01:21;;;;;;;9.73;4.32;;;;;;;13.37;100.00;101948.13;7391551;19;20002;-74
2022/08/27 02:03:51;;;;;;;8.50;4.03;;;;;;;13.34;100.00;101948.06;7391940;19;20466;-74
2022/08/27 02:06:21;;;;;;;12.60;4.78;;;;;;;13.32;100.00;101944.50;7384878;19;20007;-74
2022/08/27 02:08:51;;;;;;;8.07;4.05;;;;;;;13.35;100.00;101944.56;7382768;19;20014;-75
2022/08/27 02:11:24;;;;;;;8.57;4.45;;;;;;;13.34;100.00;101937.53;7382179;19;20037;-74
2022/08/27 02:13:53;;;;;;;8.35;4.15;;;;;;;13.31;100.00;101937.47;7380598;19;20014;-73
2022/08/27 02:16:24;;;;;;;10.90;4.88;;;;;;;13.30;100.00;101940.97;7376659;19;20003;-74
2022/08/27 02:18:54;;;;;;;11.65;4.55;;;;;;;13.28;100.00;101941.78;7381727;19;20007;-74
2022/08/27 02:21:24;;;;;;;11.75;4.88;;;;;;;13.25;100.00;101936.47;7381890;19;20473;-74
2022/08/27 02:23:55;;;;;;;9.95;4.43;;;;;;;13.23;100.00;101938.19;7382476;19;20018;-74
2022/08/27 02:26:29;;;;;;;7.95;3.80;;;;;;;13.23;100.00;101938.19;7382548;19;20014;-74
2022/08/27 02:28:58;;;;;;;;;;;;;;;13.21;100.00;101935.50;7382250;19;20031;-74
2022/08/27 02:31:30;;;;;;;10.00;4.50;;;;;;;13.18;100.00;101938.09;7381331;19;19918;-74
2022/08/27 02:34:00;;;;;;;8.38;4.43;;;;;;;13.17;100.00;101933.66;7378942;19;20032;-74
2022/08/27 02:36:31;;;;;;;9.57;4.45;;;;;;;13.18;100.00;101930.19;7379669;19;20014;-76
2022/08/27 02:39:03;;;;;;;9.70;4.60;;;;;;;13.17;100.00;101930.16;7382774;19;20046;-74
2022/08/27 02:41:39;;;;;;;13.95;5.25;;;;;;;13.16;100.00;101925.69;7379364;19;20298;-74
2022/08/27 02:44:10;;;;;;;9.38;4.47;;;;;;;13.17;100.00;101922.25;7380003;19;20490;-74
2022/08/27 02:46:42;;;;;;;10.00;4.43;;;;;;;13.14;100.00;101923.03;7378493;19;20351;-72
2022/08/27 02:49:14;;;;;;;11.45;5.45;;;;;;;13.13;100.00;101923.91;7380401;19;20017;-71
2022/08/27 02:51:44;;;;;;;10.90;4.88;;;;;;;13.09;100.00;101924.69;7379252;19;20015;-72
2022/08/27 02:54:14;;;;;;;11.95;5.07;;;;;;;13.07;100.00;101918.50;7372498;19;20042;-70
2022/08/27 02:56:46;;;;;;;10.52;4.82;;;;;;;13.06;100.00;101914.97;7377857;19;20022;-71
2022/08/27 02:59:16;;;;;;;12.90;4.82;;;;;;;13.05;100.00;101912.31;7380225;19;20010;-71
2022/08/27 03:01:46;;;;;;;9.65;5.03;;;;;;;13.03;100.00;101909.66;7376107;19;20010;-71
2022/08/27 03:04:17;;;;;;;8.13;4.90;;;;;;;13.02;100.00;101907.00;7379648;19;20191;-72
2022/08/27 03:06:48;;;;;;;10.23;4.88;;;;;;;13.01;100.00;101914.00;7380071;19;20082;-71
2022/08/27 03:09:18;;;;;;;11.57;4.47;;;;;;;13.00;100.00;101906.97;7380490;19;20014;-74
2022/08/27 03:11:52;;;;;;;11.57;4.93;;;;;;;12.98;100.00;101906.03;7380107;19;20017;-75
2022/08/27 03:14:21;;;;;;;;;;;;;;;12.97;100.00;101914.78;7381000;19;20038;-74
2022/08/27 03:16:52;;;;;;;9.77;4.70;;;;;;;12.96;100.00;101906.88;7380518;19;19918;-74
2022/08/27 03:19:20;;;;;;;8.68;4.57;;;;;;;12.95;100.00;101913.00;7379548;19;20017;-75
2022/08/27 03:21:53;;;;;;;13.73;5.00;;;;;;;12.93;100.00;101912.97;7381140;19;20031;-75
2022/08/27 03:24:23;;;;;;;12.70;5.32;;;;;;;12.91;100.00;101911.16;7378085;19;20014;-74
2022/08/27 03:26:56;;;;;;;9.65;5.05;;;;;;;12.91;100.00;101914.66;7380449;19;20011;-74
2022/08/27 03:29:27;;;;;;;10.57;4.82;;;;;;;12.89;100.00;101916.38;7374686;19;20337;-74
2022/08/27 03:31:56;;;;;;;9.40;4.15;;;;;;;12.87;100.00;101917.22;7380196;19;20044;-75
2022/08/27 03:34:27;;;;;;;8.93;4.45;;;;;;;12.84;100.00;101912.75;7376987;19;20011;-75
2022/08/27 03:36:59;;;;;;;9.23;4.65;;;;;;;12.84;100.00;101906.63;7378347;19;20015;-73
2022/08/27 03:39:30;;;;;;;7.80;4.45;;;;;;;12.83;100.00;101904.84;7380079;19;20014;-74
2022/08/27 03:42:09;;;;;;;11.35;4.50;;;;;;;12.82;100.00;101910.97;7378629;19;20357;-73
2022/08/27 03:44:39;;;;;;;10.75;4.40;;;;;;;12.82;100.00;101909.22;7382851;19;20401;-75
2022/08/27 03:47:08;;;;;;;10.38;3.92;;;;;;;12.82;100.00;101913.59;7376492;19;20017;-74
2022/08/27 03:49:39;;;;;;;8.63;4.43;;;;;;;12.78;100.00;101907.38;7379371;19;20010;-74
2022/08/27 03:52:13;;;;;;;10.35;5.07;;;;;;;12.76;100.00;101907.34;7375870;19;20171;-74
2022/08/27 03:54:42;;;;;;;;;;;;;;;12.76;100.00;101915.22;7376792;19;20014;-74
2022/08/27 03:57:15;;;;;;;7.45;4.07;;;;;;;12.77;100.00;101909.13;7379650;19;19922;-76
2022/08/27 03:59:45;;;;;;;12.45;4.03;;;;;;;12.78;100.00;101913.53;7379313;19;20081;-74
2022/08/27 04:02:15;;;;;;;11.18;4.57;;;;;;;12.76;100.00;101912.59;7382086;19;20011;-74
2022/08/27 04:04:45;;;;;;;7.65;4.00;;;;;;;12.73;100.00;101904.63;7381412;19;20046;-74
2022/08/27 04:07:15;;;;;;;8.60;4.38;;;;;;;12.74;100.00;101910.78;7383435;19;20010;-74
2022/08/27 04:09:45;;;;;;;9.05;4.40;;;;;;;12.73;100.00;101911.66;7383455;19;20267;-74
2022/08/27 04:12:18;;;;;;;8.25;3.95;;;;;;;12.70;100.00;101904.56;7382829;19;20015;-71
2022/08/27 04:14:48;;;;;;;9.40;4.35;;;;;;;12.71;100.00;101905.47;7381245;19;20010;-71
2022/08/27 04:17:18;;;;;;;9.52;4.80;;;;;;;12.70;100.00;101899.31;7379137;19;20042;-71
2022/08/27 04:19:49;;;;;;;8.82;4.75;;;;;;;12.71;100.00;101906.34;7382474;19;20039;-71
2022/08/27 04:22:19;;;;;;;11.45;5.35;;;;;;;12.74;100.00;101909.06;7379748;19;20018;-71
2022/08/27 04:24:49;;;;;;;10.85;4.75;;;;;;;12.75;100.00;101902.94;7382283;19;20014;-71
2022/08/27 04:27:25;;;;;;;9.65;4.20;;;;;;;12.75;100.00;101912.56;7379948;19;20014;-72
2022/08/27 04:29:57;;;;;;;9.90;4.97;;;;;;;12.75;100.00;101912.56;7380941;19;20013;-71
2022/08/27 04:32:39;;;;;;;7.28;3.88;;;;;;;12.72;100.00;101907.25;7375105;19;20014;-71
2022/08/27 04:35:10;;;;;;;12.97;4.40;;;;;;;12.69;100.00;101915.06;7377847;19;20496;-71
2022/08/27 04:37:40;;;;;;;7.63;4.18;;;;;;;12.66;100.00;101910.63;7373949;19;20070;-71
2022/08/27 04:40:11;;;;;;;8.60;4.30;;;;;;;12.65;100.00;101908.84;7378955;19;20358;-72
2022/08/27 04:42:44;;;;;;;9.55;4.97;;;;;;;12.66;100.00;101915.00;7377699;19;20116;-72
2022/08/27 04:45:14;;;;;;;10.43;5.03;;;;;;;12.67;100.00;101912.41;7379704;19;20031;-72
2022/08/27 04:47:44;;;;;;;9.60;5.30;;;;;;;12.73;100.00;101919.53;7381043;19;20014;-71
2022/08/27 04:50:14;;;;;;;11.32;5.53;;;;;;;12.73;100.00;101922.19;7382834;19;20038;-72
2022/08/27 04:52:44;;;;;;;9.43;5.30;;;;;;;12.73;100.00;101932.72;7378629;19;20015;-71
2022/08/27 04:55:16;;;;;;;12.00;5.70;;;;;;;12.76;100.00;101927.50;7385247;19;20014;-71
2022/08/27 04:57:48;;;;;;;11.88;4.60;;;;;;;12.75;100.00;101929.25;7386022;19;20003;-71
2022/08/27 05:00:19;;;;;;;11.25;5.38;;;;;;;12.75;100.00;101924.00;7385584;19;20018;-72
2022/08/27 05:02:48;;;;;;;11.27;5.60;;;;;;;12.74;100.00;101931.84;7390155;19;20048;-74
2022/08/27 05:05:19;;;;;;;13.80;5.38;;;;;;;12.72;100.00;101928.28;7388023;19;20014;-76
2022/08/27 05:07:49;;;;;;;11.05;5.57;;;;;;;12.73;100.00;101932.72;7381305;19;20315;-74
2022/08/27 05:10:19;;;;;;;13.82;6.30;;;;;;;12.73;100.00;101941.50;7385503;19;20257;-74
2022/08/27 05:12:52;;;;;;;11.10;5.93;;;;;;;12.74;100.00;101938.00;7385922;19;20535;-74
2022/08/27 05:15:29;;;;;;;16.92;6.25;;;;;;;12.80;100.00;101933.72;7385899;19;20514;-74
2022/08/27 05:17:59;;;;;;;10.98;5.63;;;;;;;12.86;100.00;101936.50;7387466;19;20411;-75
2022/08/27 05:20:35;;;;;;;9.60;5.07;;;;;;;12.95;100.00;101942.84;7387056;19;20442;-76
2022/08/27 05:23:08;;;;;;;9.90;5.22;;;;;;;13.05;100.00;101943.91;7387234;19;20011;-74
2022/08/27 05:25:40;;;;;;;12.32;5.93;;;;;;;13.15;100.00;101945.88;7387534;19;20010;-76
2022/08/27 05:28:13;;;;;;;10.48;5.07;;;;;;;13.22;100.00;101936.41;7389771;19;20032;-75
2022/08/27 05:30:46;;;;;;;10.48;5.50;;;;;;;13.28;100.00;101934.78;7386335;19;20018;-74
2022/08/27 05:33:27;;;;;;;12.93;6.03;;;;;;;13.39;100.00;101940.25;7386488;19;20007;-76
2022/08/27 05:36:01;;;;;;;11.48;4.97;;;;;;;13.44;100.00;101938.59;7379999;19;20027;-74
2022/08/27 05:38:34;;;;;;;11.73;5.93;;;;;;;13.56;100.00;101940.53;7388948;19;20006;-74
2022/08/27 05:41:09;;;;;;;11.57;6.03;;;;;;;13.69;100.00;101947.81;7385279;19;20082;-74
2022/08/27 05:43:43;;;;;;;11.80;5.43;;;;;;;13.76;100.00;101941.78;7383228;19;20106;-70
2022/08/27 05:46:23;;;;;;;9.30;5.22;;;;;;;13.84;100.00;101941.91;7381894;19;20014;-76
2022/08/27 05:48:58;;;;;;;12.60;4.80;;;;;;;13.91;100.00;101942.06;7385449;19;20452;-74
2022/08/27 05:51:31;;;;;;;8.77;4.45;;;;;;;13.95;100.00;101935.97;7386000;19;20014;-76
2022/08/27 05:54:15;;;;;;;9.77;4.80;;;;;;;14.03;100.00;101942.25;7380605;19;20010;-75
2022/08/27 05:56:44;;;;;;;12.50;4.80;;;;;;;14.07;100.00;101932.66;7386323;19;20014;-75
2022/08/27 06:02:04;;;;;;;12.85;5.53;;;;;;;14.21;100.00;101930.22;7382559;19;20070;-74
2022/08/27 06:04:38;;;;;;;14.65;5.43;;;;;;;14.31;100.00;101932.16;7383258;19;20338;-75
2022/08/27 06:07:09;;;;;;;9.68;4.80;;;;;;;14.42;100.00;101933.25;7386666;19;20038;-75
2022/08/27 06:09:40;;;;;;;13.43;4.88;;;;;;;14.51;100.00;101930.72;7383978;19;20059;-76
2022/08/27 06:12:11;;;;;;;11.40;4.80;;;;;;;14.58;100.00;101929.91;7387700;19;20027;-76
2022/08/27 06:14:43;;;;;;;11.60;4.47;;;;;;;14.67;100.00;101931.81;7384878;19;20042;-75
2022/08/27 06:17:16;;;;;;;9.65;4.10;;;;;;;14.73;100.00;101932.78;7383481;19;20073;-76
2022/08/27 06:19:46;;;;;;;7.50;3.97;;;;;;;14.82;100.00;101929.38;7379765;19;20223;-75
2022/08/27 06:22:16;;;;;;;11.07;4.30;;;;;;;14.94;100.00;101931.28;7382205;19;20015;-75
2022/08/27 06:24:46;;;;;;;10.60;5.63;;;;;;;15.05;100.00;101932.31;7381447;19;20392;-76
2022/08/27 06:27:19;;;;;;;11.85;4.65;;;;;;;15.17;100.00;101923.63;7377287;19;20034;-76
2022/08/27 06:29:52;;;;;;;9.57;4.53;;;;;;;15.31;100.00;101936.16;7385544;19;20017;-75
2022/08/27 06:32:24;;;;;;;9.00;4.57;;;;;;;15.43;100.00;101934.50;7379491;19;20042;-76
2022/08/27 06:34:53;;;;;;;8.13;3.72;;;;;;;15.56;100.00;101931.13;7381617;19;20006;-75
2022/08/27 06:37:23;;;;;;;8.60;4.00;;;;;;;15.67;100.00;101935.66;7378092;19;20022;-72
2022/08/27 06:39:53;;;;;;;9.35;4.57;;;;;;;15.77;100.00;101918.09;7377012;19;20018;-72
2022/08/27 06:42:23;;;;;;;9.05;3.83;;;;;;;15.92;100.00;101930.59;7375279;19;20038;-72
2022/08/27 06:44:56;;;;;;;10.52;3.72;;;;;;;15.98;100.00;101923.59;7379521;19;20015;-72
2022/08/27 06:47:26;;;;;;;10.52;4.20;;;;;;;16.11;100.00;101927.22;7376035;19;20007;-71
2022/08/27 06:49:57;;;;;;;7.70;3.97;;;;;;;16.22;100.00;101922.00;7378270;19;20010;-71
2022/08/27 06:52:29;;;;;;;8.75;3.97;;;;;;;16.35;100.00;101911.50;7373468;19;21243;-71
2022/08/27 06:54:59;;;;;;;7.75;3.80;;;;;;;16.49;100.00;101919.53;7380121;19;20027;-76
2022/08/27 06:57:30;;;;;;;9.27;4.15;;;;;;;16.55;100.00;101916.94;7383924;19;20018;-75
2022/08/27 07:00:12;;;;;;;9.30;4.03;;;;;;;16.66;100.00;101923.19;7381545;19;20748;-76
2022/08/27 07:02:42;;;;;;;12.00;4.10;;;;;;;16.73;100.00;101929.41;7383436;19;20461;-75
2022/08/27 07:05:13;;;;;;;10.80;4.78;;;;;;;16.81;100.00;101926.78;7382214;19;20031;-77
2022/08/27 07:07:43;;;;;;;8.85;4.03;;;;;;;16.89;100.00;101931.25;7380467;19;20027;-77
2022/08/27 07:10:17;;;;;;;9.23;4.03;;;;;;;17.02;100.00;101942.78;7381146;19;20018;-76
2022/08/27 07:12:47;;;;;;;12.15;4.20;;;;;;;17.04;100.00;101933.06;7381045;19;20010;-72
2022/08/27 07:15:21;;;;;;;9.20;3.95;;;;;;;17.12;100.00;101934.00;7379648;19;20086;-71
2022/08/27 07:17:55;;;;;;;9.07;3.78;;;;;;;17.22;100.00;101938.44;7378923;19;20441;-71
2022/08/27 07:20:25;;;;;;;9.90;4.15;;;;;;;17.25;100.00;101938.47;7376474;19;20014;-74
2022/08/27 07:22:58;;;;;;;10.70;4.30;;;;;;;17.32;100.00;101934.94;7378010;19;20017;-72
2022/08/27 07:25:30;;;;;;;10.40;4.15;;;;;;;17.37;100.00;101932.31;7379256;19;20043;-71
2022/08/27 07:28:05;;;;;;;10.35;4.00;;;;;;;17.42;100.00;101937.63;7379265;19;20006;-72
2022/08/27 07:30:38;;;;;;;7.45;3.78;;;;;;;17.44;100.00;101933.22;7375158;19;20006;-76
2022/08/27 07:33:08;;;;;;;8.75;4.10;;;;;;;17.53;100.00;101944.72;7379964;19;20014;-76
2022/08/27 07:35:40;;;;;;;9.68;4.20;;;;;;;17.64;100.00;101950.06;7384441;19;20007;-76
2022/08/27 07:38:11;;;;;;;9.35;4.20;;;;;;;17.68;100.00;101948.31;7384662;19;20539;-76
2022/08/27 07:40:41;;;;;;;8.45;3.65;;;;;;;17.78;100.00;101948.31;7378462;19;20317;-77
2022/08/27 07:45:57;;;;;;;12.00;4.30;;;;;;;18.02;100.00;101949.22;7381330;19;20011;-77
2022/08/27 07:48:32;;;;;;;10.43;4.22;;;;;;;18.19;100.00;101955.41;7384145;19;20011;-71
2022/08/27 07:51:16;;;;;;;10.55;4.47;;;;;;;18.31;100.00;101947.44;7380680;19;20507;-71
2022/08/27 07:53:46;;;;;;;9.38;4.05;;;;;;;18.33;100.00;101948.31;7373054;19;20323;-71
2022/08/27 07:56:16;;;;;;;6.20;3.10;;;;;;;18.51;100.00;101950.06;7388109;19;20035;-78
2022/08/27 07:58:46;;;;;;;8.55;3.28;;;;;;;18.60;100.00;101950.97;7379665;19;20018;-76
2022/08/27 08:01:22;;;;;;;8.25;3.50;;;;;;;18.75;100.00;101960.63;7382037;19;20018;-76
2022/08/27 08:03:52;;;;;;;6.72;3.22;;;;;;;18.82;100.00;101961.50;7385883;19;20006;-77
2022/08/27 08:06:22;;;;;;;9.98;3.38;;;;;;;18.95;100.00;101961.47;7383295;19;20019;-80
2022/08/27 08:09:07;;;;;;;7.93;2.90;;;;;;;19.26;100.00;101970.22;7385981;19;20022;-81
2022/08/27 08:11:41;;;;;;;6.47;3.17;;;;;;;19.35;100.00;101974.59;7387846;19;20045;-80
2022/08/27 08:14:11;;;;;;;7.30;3.38;;;;;;;19.45;100.00;101973.66;7384116;19;20197;-81
2022/08/27 08:16:46;;;;;;;13.05;3.80;;;;;;;19.53;100.00;101979.84;7382292;19;20554;-80
2022/08/27 08:19:17;;;;;;;10.77;3.58;;;;;;;19.73;100.00;101966.44;7378169;19;20483;-80
2022/08/27 08:21:49;;;;;;;9.57;4.20;;;;;;;19.77;100.00;101972.59;7380772;19;20007;-79
2022/08/27 08:24:39;;;;;;;8.35;4.10;;;;;;;19.75;100.00;101972.63;7377609;19;20137;-80
2022/08/27 08:27:10;;;;;;;6.93;3.65;;;;;;;19.85;100.00;101974.31;7379672;19;20007;-81
2022/08/27 08:29:40;;;;;;;9.60;3.60;;;;;;;19.99;100.00;101974.19;7383765;19;20014;-80
2022/08/27 08:32:12;;;;;;;9.15;3.50;;;;;;;20.24;100.00;101969.56;7380351;19;20074;-80
2022/08/27 08:34:43;;;;;;;12.88;3.72;;;;;;;20.39;100.00;101974.78;7382295;19;20150;-79
2022/08/27 08:37:14;;;;;;;10.23;4.15;;;;;;;20.43;100.00;101976.53;7382521;19;20118;-79
2022/08/27 08:39:44;;;;;;;6.75;3.30;;;;;;;20.50;100.00;101967.56;7382581;19;20016;-80
2022/08/27 08:42:30;;;;;;;9.63;3.28;;;;;;;20.46;100.00;101967.63;7389604;19;20333;-80
2022/08/27 08:45:11;;;;;;;6.22;3.22;;;;;;;20.65;100.00;101970.97;7394448;19;20018;-80
2022/08/27 08:47:47;;;;;;;9.07;2.65;;;;;;;20.69;100.00;101972.72;7394197;19;20492;-79
2022/08/27 08:50:23;;;;;;;5.88;2.40;;;;;;;20.78;100.00;101973.50;7394976;19;20478;-79
2022/08/27 08:53:11;;;;;;;;;;;;;;;;;;;;;
2022/08/27 08:55:53;;;;;;;5.10;2.30;;;;;;;20.85;100.00;101982.28;7385883;19;20010;-75
2022/08/27 08:59:02;;;;;;;8.43;2.95;;;;;;;20.99;100.00;101979.47;7386740;19;20019;-76
2022/08/27 09:05:30;;;;;;;6.93;2.33;;;;;;;20.75;96.70;101981.53;7389600;19;20475;-75
2022/08/27 09:08:22;;;;;;;7.45;2.85;;;;;;;21.08;97.17;101984.69;7376260;19;20042;-77
2022/08/27 09:11:22;;;;;;;8.02;2.38;;;;;;;21.00;94.65;101984.78;7378019;19;20017;-74
2022/08/27 09:13:57;;;;;;;6.78;2.67;;;;;;;20.93;91.18;101991.09;7379669;19;20021;-76
2022/08/27 09:16:27;;;;;;;4.78;2.20;;;;;;;21.39;90.35;101980.78;7375317;19;20043;-75
2022/08/27 09:19:00;;;;;;;6.13;2.30;;;;;;;21.56;86.14;101982.31;7380509;19;20014;-76
2022/08/27 09:21:59;;;;;;;9.20;2.42;;;;;;;21.60;84.56;101987.59;7377301;19;20033;-74
2022/08/27 09:24:54;;;;;;;9.65;2.78;;;;;;;21.64;82.93;101983.09;7377768;19;20002;-75
2022/08/27 09:27:28;;;;;;;5.25;2.35;;;;;;;21.81;85.01;101991.75;7376227;19;20102;-76
2022/08/27 09:30:22;;;;;;;5.47;2.08;;;;;;;21.68;83.72;101999.06;7381793;19;20350;-75
2022/08/27 09:33:18;;;;;;;5.35;2.38;;;;;;;21.71;83.48;101993.66;7379717;19;20073;-76
2022/08/27 09:35:49;;;;;;;9.23;2.55;;;;;;;21.58;84.10;101994.75;7378582;19;20015;-75
2022/08/27 09:38:39;;;;;;;6.70;2.10;;;;;;;21.58;82.30;101997.41;7383042;19;20028;-76
2022/08/27 09:41:29;;;;;;;5.95;2.13;;;;;;;21.56;85.40;102001.00;7380125;19;20007;-76
2022/08/27 09:44:04;;;;;;;7.00;2.78;;;;;;;21.33;85.44;101991.53;7379685;19;20066;-75
2022/08/27 09:46:36;;;;;;;6.68;2.47;;;;;;;21.35;84.91;101991.50;7387459;19;20059;-75
2022/08/27 09:49:17;;;;;;;7.15;2.65;;;;;;;21.41;86.69;101989.63;7385808;19;20011;-75
2022/08/27 09:51:50;;;;;;;5.78;2.30;;;;;;;21.23;87.25;101995.22;7382405;19;20035;-76
2022/08/27 09:54:39;;;;;;;8.20;2.30;;;;;;;21.32;86.27;101991.53;7374039;19;20066;-80
2022/08/27 09:57:11;;;;;;;7.05;2.70;;;;;;;21.34;88.51;101985.28;7384659;19;20019;-80
2022/08/27 09:59:46;;;;;;;7.18;2.30;;;;;;;21.43;88.58;101995.84;7390173;19;20015;-80
2022/08/27 10:02:19;;;;;;;5.28;2.17;;;;;;;21.39;87.75;101988.78;7380275;19;20332;-75
2022/08/27 10:04:54;;;;;;;6.30;2.33;;;;;;;21.58;86.37;101988.53;7377313;19;21314;-75
2022/08/27 10:07:51;;;;;;;5.03;2.15;;;;;;;21.90;85.86;101990.69;7382540;19;20011;-75
2022/08/27 10:10:28;;;;;;;10.07;2.70;;;;;;;22.04;84.45;101994.06;7383213;19;20363;-75
2022/08/27 10:13:04;;;;;;;8.00;2.60;;;;;;;22.26;84.23;101984.78;7380980;19;20041;-75
2022/08/27 10:15:46;;;;;;;9.98;2.42;;;;;;;22.21;82.33;101984.00;7380252;19;20054;-74
2022/08/27 10:18:31;;;;;;;8.65;2.33;;;;;;;22.51;82.70;101978.09;7384400;19;20072;-75
2022/08/27 10:21:14;;;;;;;5.93;2.40;;;;;;;22.42;82.23;101988.09;7382576;19;20479;-75
2022/08/27 10:23:52;;;;;;;5.32;2.35;;;;;;;22.65;81.23;101972.50;7385103;19;20349;-74
2022/08/27 10:26:36;;;;;;;7.93;2.50;;;;;;;22.67;82.29;101973.38;7386448;19;20046;-75
2022/08/27 10:29:11;;;;;;;;;;;;;;;22.69;81.57;101978.69;7387633;19;20054;-75
2022/08/27 10:31:49;;;;;;;6.38;2.13;;;;;;;22.71;79.09;101983.09;7384426;19;19911;-74
2022/08/27 10:34:36;;;;;;;5.47;2.00;;;;;;;23.02;81.05;101977.16;7380535;19;20031;-75
2022/08/27 10:37:17;;;;;;;7.53;2.67;;;;;;;23.01;77.51;101975.38;7380095;19;20135;-74
2022/08/27 10:40:08;;;;;;;8.88;2.65;;;;;;;22.68;76.80;101966.22;7380869;19;20074;-75
2022/08/27 10:46:39;;;;;;;4.50;2.08;;;;;;;22.91;76.17;101974.69;7373469;19;20720;-77
2022/08/27 10:49:31;;;;;;;6.00;2.10;;;;;;;22.60;77.96;101976.19;7381082;19;20097;-77
2022/08/27 10:52:19;;;;;;;6.32;2.35;;;;;;;22.49;75.58;101974.59;7380394;19;20018;-77
2022/08/27 10:55:09;;;;;;;6.65;2.30;;;;;;;22.16;77.59;101975.16;7380286;19;20017;-76
2022/08/27 10:57:57;;;;;;;8.48;2.35;;;;;;;21.99;76.19;101972.72;7381714;19;20007;-76
2022/08/27 11:01:08;;;;;;;5.65;2.17;;;;;;;22.38;78.65;101967.66;7383049;19;20062;-77
2022/08/27 11:04:08;;;;;;;5.95;2.28;;;;;;;22.69;75.90;101971.53;7373797;19;20014;-76
2022/08/27 11:07:14;;;;;;;4.85;2.30;;;;;;;22.31;74.55;101968.69;7385390;19;20569;-76
2022/08/27 11:09:49;;;;;;;4.63;2.17;;;;;;;22.55;74.94;101975.38;7382112;19;20018;-75
2022/08/27 11:12:32;;;;;;;8.27;2.33;;;;;;;22.60;75.72;101973.50;7386344;19;20031;-75
2022/08/27 11:15:17;;;;;;;9.13;2.35;;;;;;;22.61;76.17;101975.28;7387359;19;20550;-76
2022/08/27 11:17:52;;;;;;;5.32;1.88;;;;;;;22.52;75.76;101981.66;7388823;19;20117;-76
2022/08/27 11:20:26;;;;;;;5.78;2.40;;;;;;;22.44;74.55;101967.56;7392602;19;20027;-75
2022/08/27 11:23:06;;;;;;;6.95;2.28;;;;;;;22.29;77.29;101966.03;7388531;19;20450;-74
2022/08/27 11:25:50;;;;;;;6.32;2.35;;;;;;;22.70;76.69;101959.94;7389658;19;20015;-79
2022/08/27 11:28:28;;;;;;;4.13;2.20;;;;;;;22.90;74.63;101962.22;7387015;19;20011;-79
2022/08/27 11:31:07;;;;;;;5.07;2.05;;;;;;;22.95;75.03;101954.97;7383729;19;20015;-81
2022/08/27 11:33:45;;;;;;;6.70;2.20;;;;;;;23.11;74.74;101963.56;7385425;19;20019;-80
2022/08/27 11:36:53;;;;;;;7.20;2.35;;;;;;;23.12;74.88;101960.00;7389339;19;20039;-81
2022/08/27 11:40:01;;;;;;;6.00;2.05;;;;;;;23.31;74.55;101961.34;7383546;19;20574;-80
2022/08/27 11:42:41;;;;;;;6.30;2.55;;;;;;;22.81;74.21;101959.75;7382272;19;20060;-78
2022/08/27 11:45:19;;;;;;;7.05;2.45;;;;;;;22.62;76.83;101966.34;7383722;19;20015;-80
2022/08/27 11:47:56;;;;;;;5.93;2.70;;;;;;;22.55;78.04;101962.91;7382873;19;20128;-79
2022/08/27 11:50:32;;;;;;;5.40;2.20;;;;;;;22.65;77.66;101963.59;7384174;19;20014;-79
2022/08/27 11:53:12;;;;;;;4.97;2.28;;;;;;;22.54;77.03;101962.91;7378871;19;20029;-79
2022/08/27 11:55:44;;;;;;;6.28;2.00;;;;;;;22.48;78.61;101964.81;7384135;19;20011;-80
2022/08/27 11:58:28;;;;;;;8.05;2.40;;;;;;;22.57;78.30;101970.88;7383914;19;20006;-79
2022/08/27 12:01:06;;;;;;;6.25;2.47;;;;;;;22.71;78.00;101960.81;7383995;19;20016;-80
2022/08/27 12:03:39;;;;;;;9.00;2.40;;;;;;;22.67;77.69;101961.78;7383896;19;20017;-81
2022/08/27 12:06:43;;;;;;;3.40;2.10;;;;;;;22.67;78.46;101960.00;7387477;19;20014;-82
2022/08/27 12:09:24;;;;;;;6.43;2.05;;;;;;;22.72;77.79;101962.59;7383547;19;20010;-78
2022/08/27 12:12:09;;;;;;;8.20;2.85;;;;;;;22.47;80.11;101963.03;7388470;19;20011;-80
2022/08/27 12:14:47;;;;;;;7.68;3.03;;;;;;;22.23;81.65;101960.78;7382681;19;20011;-79